createdAt,value
2023-04-23T03:01:45.935Z,6.82
2023-04-23T03:04:15.785Z,6.68
2023-04-23T03:06:43.796Z,7.00
2023-04-23T03:09:12.825Z,7.03
2023-04-23T03:11:40.931Z,6.85
2023-04-23T03:14:13.993Z,7.20
2023-04-23T03:16:41.985Z,7.40
2023-04-23T03:19:11.410Z,7.35
2023-04-23T03:21:40.746Z,7.70
2023-04-23T03:24:09.590Z,7.57
2023-04-23T03:26:37.476Z,7.57
2023-04-23T03:29:06.258Z,7.20
2023-04-23T03:31:34.542Z,7.78
2023-04-23T03:34:03.229Z,7.15
2023-04-23T03:36:35.789Z,7.70
2023-04-23T03:39:04.297Z,7.45
2023-04-23T03:41:44.807Z,7.00
2023-04-23T03:44:14.962Z,7.10
2023-04-23T03:46:45.674Z,6.45
2023-04-23T03:49:16.669Z,6.78
2023-04-23T03:51:46.548Z,6.75
2023-04-23T03:54:14.377Z,7.07
2023-04-23T03:57:02.547Z,6.95
2023-04-23T03:59:35.037Z,7.10
2023-04-23T04:02:04.402Z,6.75
2023-04-23T04:04:32.925Z,6.97
2023-04-23T04:07:02.292Z,6.88
2023-04-23T04:09:30.464Z,6.68
2023-04-23T04:12:02.691Z,6.78
2023-04-23T04:14:31.043Z,7.00
2023-04-23T04:16:58.969Z,6.85
2023-04-23T04:19:26.959Z,6.97
2023-04-23T04:21:54.850Z,7.03
2023-04-23T04:24:26.267Z,6.90
2023-04-23T04:26:54.256Z,7.22
2023-04-23T04:29:23.859Z,7.15
2023-04-23T04:31:51.982Z,7.03
2023-04-23T04:34:20.218Z,6.40
2023-04-23T04:36:48.462Z,6.45
2023-04-23T04:39:17.335Z,5.97
2023-04-23T04:41:46.663Z,6.72
2023-04-23T04:44:16.472Z,6.85
2023-04-23T04:46:44.954Z,6.22
2023-04-23T04:49:13.532Z,6.68
2023-04-23T04:51:42.170Z,6.95
2023-04-23T04:54:10.022Z,6.85
2023-04-23T04:56:37.878Z,6.50
2023-04-23T04:59:07.102Z,6.57
2023-04-23T05:01:37.184Z,6.60
2023-04-23T05:04:05.507Z,6.55
2023-04-23T05:06:33.491Z,6.40
2023-04-23T05:09:01.334Z,6.45
2023-04-23T05:11:29.196Z,6.25
2023-04-23T05:13:58.306Z,6.78
2023-04-23T05:16:27.671Z,6.53
2023-04-23T05:18:55.631Z,6.68
2023-04-23T05:21:23.608Z,6.30
2023-04-23T05:23:51.496Z,7.30
2023-04-23T05:26:19.345Z,6.53
2023-04-23T05:28:47.260Z,6.45
2023-04-23T05:31:15.088Z,6.30
2023-04-23T05:33:49.975Z,6.57
2023-04-23T05:36:18.643Z,6.38
2023-04-23T05:38:46.620Z,6.30
2023-04-23T05:41:14.477Z,6.50
2023-04-23T05:43:42.756Z,6.32
2023-04-23T05:46:11.006Z,6.45
2023-04-23T05:48:38.874Z,6.28
2023-04-23T05:51:08.129Z,6.00
2023-04-23T05:53:36.444Z,5.88
2023-04-23T05:56:04.409Z,6.45
2023-04-23T05:58:32.391Z,6.20
2023-04-23T06:01:00.241Z,6.20
2023-04-23T06:03:28.259Z,6.18
2023-04-23T06:05:56.410Z,6.15
2023-04-23T06:08:25.741Z,5.10
2023-04-23T06:10:55.789Z,5.45
2023-04-23T06:13:23.732Z,6.28
2023-04-23T06:15:51.618Z,5.35
2023-04-23T06:18:19.562Z,5.53
2023-04-23T06:20:48.739Z,5.43
2023-04-23T06:23:16.582Z,5.10
2023-04-23T06:25:45.904Z,5.22
2023-04-23T06:28:13.755Z,5.10
2023-04-23T06:31:02.557Z,5.07
2023-04-23T06:33:30.498Z,5.60
2023-04-23T06:35:58.388Z,5.05
2023-04-23T06:38:26.327Z,4.78
2023-04-23T06:40:55.822Z,5.03
2023-04-23T06:43:24.100Z,5.28
2023-04-23T06:46:14.643Z,5.70
2023-04-23T06:48:42.877Z,4.93
2023-04-23T06:51:10.978Z,5.30
2023-04-23T06:53:38.969Z,5.32
2023-04-23T06:56:08.704Z,5.10
2023-04-23T06:58:36.737Z,5.22
2023-04-23T07:01:14.355Z,5.22
2023-04-23T07:03:45.131Z,4.70
2023-04-23T07:06:13.293Z,4.90
2023-04-23T07:08:41.411Z,5.15
2023-04-23T07:11:10.655Z,5.20
2023-04-23T07:13:38.684Z,5.22
2023-04-23T07:16:06.911Z,5.45
2023-04-23T07:18:34.888Z,5.43
2023-04-23T07:21:03.253Z,5.13
2023-04-23T07:23:31.182Z,4.95
2023-04-23T07:25:59.147Z,4.95
2023-04-23T07:28:28.356Z,5.35
2023-04-23T07:30:56.431Z,5.25
2023-04-23T07:33:24.324Z,5.70
2023-04-23T07:35:52.579Z,4.90
2023-04-23T07:38:20.436Z,5.38
2023-04-23T07:40:48.794Z,6.10
2023-04-23T07:43:16.891Z,5.15
2023-04-23T07:45:46.129Z,5.45
2023-04-23T07:48:14.367Z,5.30
2023-04-23T07:50:43.094Z,4.90
2023-04-23T07:53:10.946Z,5.18
2023-04-23T07:55:38.794Z,5.55
2023-04-23T07:58:06.617Z,5.38
2023-04-23T08:00:34.551Z,4.93
2023-04-23T08:03:03.939Z,5.70
2023-04-23T08:05:31.985Z,5.88
2023-04-23T08:07:59.839Z,5.40
2023-04-23T08:10:27.723Z,5.35
2023-04-23T08:12:55.622Z,5.57
2023-04-23T08:15:23.603Z,5.47
2023-04-23T08:17:51.533Z,5.10
2023-04-23T08:20:21.019Z,4.75
2023-04-23T08:22:50.208Z,4.85
2023-04-23T08:25:18.145Z,4.70
2023-04-23T08:27:46.190Z,4.55
2023-04-23T08:30:14.589Z,5.05
2023-04-23T08:32:42.657Z,4.68
2023-04-23T08:35:10.830Z,4.55
2023-04-23T08:37:40.231Z,5.03
2023-04-23T08:40:09.976Z,4.60
2023-04-23T08:42:42.696Z,4.70
2023-04-23T08:45:11.950Z,4.95
2023-04-23T08:47:43.067Z,4.70
2023-04-23T08:50:13.506Z,4.68
2023-04-23T08:52:47.790Z,4.60
2023-04-23T08:55:16.135Z,4.65
2023-04-23T08:57:44.058Z,4.30
2023-04-23T09:00:13.962Z,4.53
2023-04-23T09:02:43.706Z,3.90
2023-04-23T09:05:11.986Z,4.18
2023-04-23T09:07:40.327Z,4.00
2023-04-23T09:10:12.669Z,3.50
2023-04-23T09:12:43.396Z,3.75
2023-04-23T09:15:12.742Z,3.17
2023-04-23T09:17:45.057Z,3.22
2023-04-23T09:20:15.101Z,2.97
2023-04-23T09:22:47.335Z,3.08
2023-04-23T09:25:18.557Z,3.13
2023-04-23T09:27:47.299Z,3.17
2023-04-23T09:30:16.281Z,2.72
2023-04-23T09:32:46.915Z,2.80
2023-04-23T09:35:16.413Z,2.70
2023-04-23T09:37:48.281Z,2.90
2023-04-23T09:40:20.808Z,2.47
2023-04-23T09:42:50.716Z,2.35
2023-04-23T09:45:18.778Z,2.70
2023-04-23T09:47:51.475Z,2.70
2023-04-23T09:50:19.651Z,3.03
2023-04-23T09:52:55.267Z,2.33
2023-04-23T09:55:31.007Z,2.47
2023-04-23T09:58:00.005Z,2.72
2023-04-23T10:00:30.632Z,2.10
2023-04-23T10:03:01.728Z,2.00
2023-04-23T10:05:40.764Z,2.10
2023-04-23T10:08:15.956Z,2.40
2023-04-23T10:11:00.117Z,2.50
2023-04-23T10:13:35.615Z,2.45
2023-04-23T10:16:18.604Z,2.35
2023-04-23T10:18:51.295Z,2.47
2023-04-23T10:21:20.599Z,2.58
2023-04-23T10:23:51.052Z,2.30
2023-04-23T10:26:23.776Z,2.00
2023-04-23T10:28:55.183Z,1.98
2023-04-23T10:31:23.586Z,2.00
2023-04-23T10:33:59.422Z,2.00
2023-04-23T10:36:29.064Z,1.90
2023-04-23T10:39:00.786Z,1.90
2023-04-23T10:41:37.738Z,1.92
2023-04-23T10:44:07.165Z,1.85
2023-04-23T10:46:38.674Z,2.08
2023-04-23T10:49:09.260Z,2.25
2023-04-23T10:54:09.815Z,2.10
2023-04-23T10:56:40.745Z,1.95
2023-04-23T10:59:09.902Z,2.10
2023-04-23T11:01:37.901Z,2.50
2023-04-23T11:04:22.832Z,2.30
2023-04-23T11:06:59.077Z,1.95
2023-04-23T11:09:31.560Z,1.90
2023-04-23T11:12:01.425Z,2.10
2023-04-23T11:14:47.838Z,2.35
2023-04-23T11:17:17.026Z,2.10
2023-04-23T11:20:10.974Z,2.10
2023-04-23T11:22:39.529Z,1.88
2023-04-23T11:25:11.077Z,1.90
2023-04-23T11:27:45.063Z,1.80
2023-04-23T11:30:14.923Z,1.90
2023-04-23T11:32:45.270Z,1.88
2023-04-23T11:35:14.984Z,1.90
2023-04-23T11:37:44.241Z,1.85
2023-04-23T11:40:17.711Z,1.65
2023-04-23T11:42:49.316Z,1.83
2023-04-23T11:45:21.234Z,1.80
2023-04-23T11:47:50.946Z,1.52
2023-04-23T11:50:20.024Z,1.90
2023-04-23T11:52:48.533Z,1.98
2023-04-23T11:55:16.766Z,1.80
2023-04-23T11:57:47.973Z,1.95
2023-04-23T12:00:18.001Z,1.85
2023-04-23T12:02:53.672Z,1.70
2023-04-23T12:05:22.745Z,2.00
2023-04-23T12:07:53.495Z,1.90
2023-04-23T12:10:22.484Z,1.50
2023-04-23T12:12:53.020Z,1.80
2023-04-23T12:15:21.504Z,1.65
2023-04-23T12:17:51.275Z,1.77
2023-04-23T12:20:22.680Z,2.35
2023-04-23T12:22:50.738Z,2.40
2023-04-23T12:25:23.350Z,2.40
2023-04-23T12:27:52.525Z,2.10
2023-04-23T12:30:20.389Z,2.00
2023-04-23T12:32:48.266Z,1.73
2023-04-23T12:35:16.201Z,2.30
2023-04-23T12:37:44.066Z,2.00
2023-04-23T12:40:12.678Z,1.95
2023-04-23T12:42:40.555Z,1.90
2023-04-23T12:45:11.980Z,1.75
2023-04-23T12:47:40.234Z,2.00
2023-04-23T12:50:09.040Z,2.10
2023-04-23T12:52:38.143Z,1.98
2023-04-23T12:55:06.773Z,1.67
2023-04-23T12:57:34.645Z,1.90
2023-04-23T13:00:02.504Z,2.20
2023-04-23T13:02:32.278Z,2.30
2023-04-23T13:05:01.183Z,2.10
2023-04-23T13:07:29.362Z,2.00
2023-04-23T13:09:59.327Z,1.70
2023-04-23T13:12:27.448Z,1.92
2023-04-23T13:14:55.311Z,1.67
2023-04-23T13:17:25.192Z,1.70
2023-04-23T13:19:54.977Z,1.67
2023-04-23T13:22:28.270Z,1.75
2023-04-23T13:24:56.991Z,1.60
2023-04-23T13:27:26.216Z,1.70
2023-04-23T13:29:54.057Z,1.90
2023-04-23T13:32:23.550Z,1.95
2023-04-23T13:34:51.411Z,1.67
2023-04-23T13:37:20.641Z,1.73
2023-04-23T13:39:49.658Z,1.80
2023-04-23T13:42:17.488Z,1.75
2023-04-23T13:44:45.303Z,1.70
2023-04-23T13:47:13.164Z,1.63
2023-04-23T13:49:41.323Z,1.73
2023-04-23T13:52:09.375Z,1.70
2023-04-23T13:54:39.142Z,2.83
2023-04-23T13:57:07.459Z,1.70
2023-04-23T13:59:35.441Z,1.80
2023-04-23T14:02:03.287Z,1.70
2023-04-23T14:04:31.203Z,1.88
2023-04-23T14:06:59.126Z,1.60
2023-04-23T14:09:27.085Z,1.63
2023-04-23T14:11:56.909Z,1.60
2023-04-23T14:14:24.729Z,1.80
2023-04-23T14:16:52.545Z,1.80
2023-04-23T14:19:20.601Z,1.85
2023-04-23T14:21:48.536Z,1.63
2023-04-23T14:24:19.508Z,1.58
2023-04-23T14:26:49.809Z,1.80
2023-04-23T14:29:25.620Z,1.70
2023-04-23T14:31:53.590Z,1.50
2023-04-23T14:34:22.069Z,1.95
2023-04-23T14:36:50.192Z,1.83
2023-04-23T14:39:18.130Z,1.50
2023-04-23T14:41:46.081Z,1.52
2023-04-23T14:44:13.972Z,1.70
2023-04-23T14:46:43.381Z,1.75
2023-04-23T14:49:11.502Z,1.58
2023-04-23T14:51:39.627Z,1.75
2023-04-23T14:54:07.580Z,1.50
2023-04-23T14:56:35.441Z,1.60
2023-04-23T14:59:03.600Z,1.67
2023-04-23T15:01:31.713Z,1.80
2023-04-23T15:04:00.994Z,1.98
2023-04-23T15:06:28.960Z,1.85
2023-04-23T15:08:56.788Z,1.90
2023-04-23T15:11:24.658Z,2.10
2023-04-23T15:13:57.745Z,1.70
2023-04-23T15:16:46.601Z,1.90
2023-04-23T15:19:18.862Z,1.98
2023-04-23T15:21:47.320Z,1.95
2023-04-23T15:24:16.006Z,1.90
2023-04-23T15:26:45.596Z,1.58
2023-04-23T15:29:13.937Z,1.58
2023-04-23T15:31:42.298Z,2.00
2023-04-23T15:34:12.013Z,2.20
2023-04-23T15:36:41.327Z,1.77
2023-04-23T15:39:09.749Z,1.50
2023-04-23T15:41:40.760Z,1.60
2023-04-23T15:44:11.889Z,1.88
2023-04-23T15:46:39.953Z,1.98
2023-04-23T15:49:07.912Z,1.73
2023-04-23T15:51:36.490Z,1.60
2023-04-23T15:54:08.252Z,1.80
2023-04-23T15:56:37.172Z,1.50
2023-04-23T15:59:05.131Z,1.52
2023-04-23T16:01:33.094Z,1.42
2023-04-23T16:04:10.141Z,1.40
2023-04-23T16:06:39.235Z,1.70
2023-04-23T16:09:08.954Z,1.95
2023-04-23T16:11:37.353Z,1.73
2023-04-23T16:14:06.032Z,1.50
2023-04-23T16:16:34.027Z,1.33
2023-04-23T16:19:03.016Z,1.40
2023-04-23T16:21:31.199Z,1.40
2023-04-23T16:23:59.190Z,1.50
2023-04-23T16:26:29.135Z,1.35
2023-04-23T16:29:16.827Z,1.25
2023-04-23T16:31:45.257Z,1.27
2023-04-23T16:34:13.233Z,1.60
2023-04-23T16:36:41.165Z,1.50
2023-04-23T16:39:09.670Z,1.27
2023-04-23T16:41:38.915Z,1.40
2023-04-23T16:44:06.946Z,1.40
2023-04-23T16:46:34.916Z,1.58
2023-04-23T16:49:02.823Z,1.67
2023-04-23T16:51:30.689Z,1.60
2023-04-23T16:53:58.590Z,1.30
2023-04-23T16:56:26.611Z,1.35
2023-04-23T16:58:55.882Z,1.40
2023-04-23T17:01:24.033Z,1.33
2023-04-23T17:03:52.192Z,1.30
2023-04-23T17:06:26.199Z,1.23
2023-04-23T17:08:54.395Z,1.20
2023-04-23T17:11:22.856Z,1.27
2023-04-23T17:13:51.382Z,1.40
2023-04-23T17:16:20.749Z,1.30
2023-04-23T17:18:48.653Z,1.40
2023-04-23T17:21:16.506Z,1.63
2023-04-23T17:23:44.330Z,1.40
2023-04-23T17:26:12.182Z,1.67
2023-04-23T17:28:40.718Z,1.55
2023-04-23T17:31:08.766Z,1.50
2023-04-23T17:33:38.650Z,1.35
2023-04-23T17:36:06.613Z,1.30
2023-04-23T17:38:34.624Z,1.60
2023-04-23T17:41:03.271Z,2.00
2023-04-23T17:43:34.805Z,1.60
2023-04-23T17:46:03.217Z,1.65
2023-04-23T17:48:31.270Z,1.70
2023-04-23T17:51:00.567Z,2.30
2023-04-23T17:53:28.442Z,1.85
2023-04-23T17:56:00.209Z,2.03
2023-04-23T17:58:28.619Z,1.92
2023-04-23T18:00:56.683Z,2.08
2023-04-23T18:03:25.167Z,2.10
2023-04-23T18:05:53.920Z,2.00
2023-04-23T18:08:23.104Z,2.03
2023-04-23T18:10:50.981Z,1.90
2023-04-23T18:13:18.861Z,1.65
2023-04-23T18:15:49.701Z,1.60
2023-04-23T18:18:17.710Z,1.60
2023-04-23T18:20:46.061Z,2.90
2023-04-23T18:23:14.266Z,3.08
2023-04-23T18:25:43.487Z,2.05
2023-04-23T18:28:11.369Z,1.83
2023-04-23T18:30:39.675Z,1.83
2023-04-23T18:33:24.874Z,2.08
2023-04-23T18:35:59.148Z,2.33
2023-04-23T18:38:32.627Z,2.75
2023-04-23T18:41:04.414Z,2.53
2023-04-23T18:43:33.368Z,2.08
2023-04-23T18:46:01.629Z,2.20
2023-04-23T18:48:42.412Z,4.30
2023-04-23T18:51:21.665Z,3.00
2023-04-23T18:53:49.625Z,2.20
2023-04-23T18:56:18.878Z,2.10
2023-04-23T18:58:46.726Z,2.08
2023-04-23T19:01:15.000Z,2.63
2023-04-23T19:03:43.226Z,2.17
2023-04-23T19:06:11.255Z,2.03
2023-04-23T19:08:39.229Z,1.90
2023-04-23T19:11:07.230Z,1.60
2023-04-23T19:13:36.430Z,1.90
2023-04-23T19:16:04.383Z,1.73
2023-04-23T19:18:32.281Z,1.60
2023-04-23T19:21:00.152Z,1.60
2023-04-23T19:23:28.160Z,1.90
2023-04-23T19:25:57.155Z,1.80
2023-04-23T19:28:25.422Z,1.83
2023-04-23T19:30:54.778Z,1.92
2023-04-23T19:33:22.750Z,2.10
2023-04-23T19:35:50.807Z,2.40
2023-04-23T19:38:18.658Z,2.53
2023-04-23T19:40:46.518Z,2.70
2023-04-23T19:43:14.764Z,2.80
2023-04-23T19:45:42.620Z,3.03
2023-04-23T19:48:11.808Z,2.10
2023-04-23T19:50:39.684Z,1.75
2023-04-23T19:53:07.535Z,1.75
2023-04-23T19:55:36.016Z,1.60
2023-04-23T19:58:06.281Z,1.55
2023-04-23T20:00:37.392Z,1.70
2023-04-23T20:03:06.789Z,1.58
2023-04-23T20:05:36.283Z,1.80
2023-04-23T20:08:11.203Z,1.52
2023-04-23T20:10:39.117Z,1.50
2023-04-23T20:13:06.982Z,1.30
2023-04-23T20:15:34.846Z,1.40
2023-04-23T20:18:02.779Z,1.10
2023-04-23T20:20:30.782Z,1.10
2023-04-23T20:23:00.685Z,1.00
2023-04-23T20:25:28.847Z,1.00
2023-04-23T20:27:57.220Z,1.00
2023-04-23T20:30:25.319Z,0.98
2023-04-23T20:32:53.300Z,1.00
2023-04-23T20:35:21.172Z,1.17
2023-04-23T20:37:49.412Z,1.10
2023-04-23T20:40:18.947Z,1.10
2023-04-23T20:42:51.354Z,1.08
2023-04-23T20:45:20.504Z,1.10
2023-04-23T20:47:48.864Z,0.90
2023-04-23T20:50:17.126Z,0.95
2023-04-23T20:52:44.973Z,1.10
2023-04-23T20:55:12.878Z,0.98
2023-04-23T20:57:42.383Z,1.27
2023-04-23T21:00:12.687Z,1.30
2023-04-23T21:02:40.947Z,1.30
2023-04-23T21:05:09.434Z,1.40
2023-04-23T21:07:37.571Z,1.30
2023-04-23T21:10:05.711Z,1.63
2023-04-23T21:12:34.174Z,1.60
2023-04-23T21:15:03.544Z,2.25
2023-04-23T21:17:31.510Z,1.90
2023-04-23T21:19:59.385Z,1.40
2023-04-23T21:22:27.210Z,1.30
2023-04-23T21:24:55.152Z,1.20
2023-04-23T21:27:22.990Z,1.60
2023-04-23T21:29:50.862Z,1.40
2023-04-23T21:32:20.071Z,1.20
2023-04-23T21:34:48.031Z,1.38
2023-04-23T21:37:16.067Z,1.20
2023-04-23T21:39:44.119Z,1.23
2023-04-23T21:42:12.080Z,1.60
2023-04-23T21:44:40.710Z,2.53
2023-04-23T21:47:08.655Z,2.60
2023-04-23T21:49:38.005Z,2.15
2023-04-23T21:52:06.526Z,1.80
2023-04-23T21:54:34.401Z,2.10
2023-04-23T21:57:02.669Z,2.08
2023-04-23T21:59:30.924Z,1.67
